Hlavní strana
METAR-TAF:

METAR-TAF

Letiště :

Gamèti, Severozápadní teritoria, Kanada

zeměpisná šířka: 64-06-58N, zeměpisná délka: 117-18-35W, výška: 221 m

Aktuální stav počasí

Zpráva byla vytvořena před 2 hodinami a 40 minutami, v 00:00 UTC
Jihovýchodní vítr 8 kt
Teplota 2°C
Vlhkost vzduchu 55%
Tlak 1017 hPa
Viditelnost: 24.1 km
Skoro jasno ve výšce 2000 ft
Skoro jasno ve výšce 15000 ft

METAR: CYRA 220000Z 13008KT 15SM FEW020 FEW150 02/M06 A3002 RMK SC2AC1 AC TR S0 AFT 14UTC / LAST STFD OBS/NEXT 221400 UTC SLP188

Čas: 20:40 (02:40 UTC)

Předpověď počasí

Zpráva byla vytvořena před 5 hodinami a 32 minutami, v 21:08 UTC
Předpověď platná od 21 v 21 UTC do 21 v 24 UTC
Jihojihovýchodní vítr 8 kt
Viditelnost: 10 km
Skoro jasno ve výšce 2000 ft
Polojasno ve výšce 15000 ft
Dočasný
od 21 v 21 UTC do 21 v 24 UTC
Oblačno až skoro zataženo ve výšce 2000 ft
Zataženo ve výšce 15000 ft

TAF: CYRA 212108Z 2121/2124 16008KT P6SM FEW020 SCT150 TEMPO 2121/2124 BKN020 OVC150 RMK NXT FCST WILL BE ISSUED AT 221545Z

Stav a předpovědi počasí z více než 4 000 letišť (zprávy METAR a TAF).

Červené a žluté tečky na mapě představují dostupné meteorologické stanice.

Když kurzor umístíte na tečku, zobrazí se název stanice.

Pak kliknutím zobrazíte stav a předpověď počasí.

Chcete-li změnit mapu, kliknutím na zelené tlačítko se znaménkem +mapu přiblížíte, kliknutím na zelené tlačítko se znaménkem – mapu oddálíte a kliknutím na zelené šipky přejdete na sousední mapy.


METAR-TAF: